Time;durP1;ratioP1;P1;durP2;ratioP2;P2;SDS_P1;SDS_P2;PMS_P1;PMS_P2;Temp;Humidity;BMP_temperature;BMP_pressure;BME280_temperature;BME280_humidity;BME280_pressure;Samples;Min_cycle;Max_cycle;Signal;HPM_P1;HPM_P2
2023/08/11 00:01:47;;;;;;;7.93;4.65;;;16.80;99.90;;;;;;6160787;23;20028;-77
2023/08/11 00:04:14;;;;;;;8.55;5.13;;;16.60;99.90;;;;;;6161169;23;20457;-77
2023/08/11 00:06:39;;;;;;;6.93;4.82;;;16.50;99.90;;;;;;6187423;23;20059;-77
2023/08/11 00:09:08;;;;;;;7.60;4.85;;;16.50;99.90;;;;;;6187721;23;20016;-77
2023/08/11 00:11:34;;;;;;;9.68;5.68;;;16.40;99.90;;;;;;6187354;23;20028;-77
2023/08/11 00:14:00;;;;;;;10.45;5.20;;;16.40;99.90;;;;;;6187253;23;20052;-77
2023/08/11 00:16:25;;;;;;;7.05;4.95;;;16.40;99.90;;;;;;6187347;23;20020;-78
2023/08/11 00:18:51;;;;;;;8.07;5.07;;;16.40;99.90;;;;;;6161100;23;20023;-77
2023/08/11 00:21:16;;;;;;;8.48;4.93;;;16.30;99.90;;;;;;6187612;23;20051;-77
2023/08/11 00:23:43;;;;;;;7.10;5.10;;;16.20;99.90;;;;;;6161000;23;20337;-77
2023/08/11 00:26:10;;;;;;;13.25;5.82;;;16.20;99.90;;;;;;6160902;23;20044;-77
2023/08/11 00:28:36;;;;;;;9.00;6.03;;;16.20;99.90;;;;;;6160849;23;20021;-77
2023/08/11 00:31:02;;;;;;;8.48;5.22;;;16.20;99.90;;;;;;6160834;23;20016;-77
2023/08/11 00:33:28;;;;;;;6.65;5.15;;;16.20;99.90;;;;;;6160899;23;20021;-77
2023/08/11 00:35:53;;;;;;;7.43;5.28;;;16.10;99.90;;;;;;6187489;23;20010;-77
2023/08/11 00:38:22;;;;;;;8.95;5.50;;;16.10;99.90;;;;;;6160796;23;20048;-78
2023/08/11 00:40:48;;;;;;;8.63;4.90;;;16.00;99.90;;;;;;6186900;23;20076;-77
2023/08/11 00:43:13;;;;;;;10.40;5.40;;;16.00;99.90;;;;;;6160729;23;20029;-77
2023/08/11 00:45:45;;;;;;;8.38;5.03;;;15.90;99.90;;;;;;6187427;23;20013;-77
2023/08/11 00:48:10;;;;;;;12.15;5.78;;;15.90;99.90;;;;;;6187093;23;20521;-77
2023/08/11 00:50:36;;;;;;;8.77;5.38;;;15.80;99.90;;;;;;6160728;23;20017;-77
2023/08/11 00:53:03;;;;;;;11.23;5.80;;;15.80;99.90;;;;;;6187288;23;20021;-77
2023/08/11 00:55:28;;;;;;;9.27;7.10;;;15.80;99.90;;;;;;6160672;23;20021;-77
2023/08/11 00:57:54;;;;;;;10.38;6.70;;;15.70;99.90;;;;;;6187250;23;20465;-77
2023/08/11 01:00:21;;;;;;;11.77;7.15;;;15.70;99.90;;;;;;6160764;23;20017;-77
2023/08/11 01:02:46;;;;;;;9.35;6.82;;;15.70;99.90;;;;;;6160632;23;20088;-77
2023/08/11 01:05:14;;;;;;;12.15;7.80;;;15.60;99.90;;;;;;6186887;23;20095;-77
2023/08/11 01:07:43;;;;;;;9.65;7.13;;;15.60;99.90;;;;;;6187111;23;20021;-77
2023/08/11 01:10:46;;;;;;;10.50;6.97;;;15.60;99.90;;;;;;6160482;23;20079;-77
2023/08/11 01:13:19;;;;;;;10.80;7.38;;;15.50;99.90;;;;;;6159983;23;20017;-76
2023/08/11 01:15:54;;;;;;;10.80;7.32;;;15.50;99.90;;;;;;6186861;23;20503;-77
2023/08/11 01:18:22;;;;;;;12.57;8.15;;;15.40;99.90;;;;;;6160471;23;20016;-77
2023/08/11 01:20:52;;;;;;;11.35;8.20;;;15.40;99.90;;;;;;6160473;23;20029;-77
2023/08/11 01:23:20;;;;;;;11.30;7.70;;;15.40;99.90;;;;;;6187132;23;20017;-77
2023/08/11 01:25:47;;;;;;;12.98;8.90;;;15.40;99.90;;;;;;6186857;23;20021;-77
2023/08/11 01:28:14;;;;;;;15.02;8.68;;;15.40;99.90;;;;;;6160461;23;20378;-77
2023/08/11 01:30:39;;;;;;;14.65;9.43;;;15.30;99.90;;;;;;6186455;23;20024;-76
2023/08/11 01:33:05;;;;;;;14.52;9.55;;;15.40;99.90;;;;;;6160329;23;20025;-76
2023/08/11 01:35:34;;;;;;;12.77;9.43;;;15.30;99.90;;;;;;6187056;23;20024;-77
2023/08/11 01:37:59;;;;;;;13.82;9.85;;;15.40;99.90;;;;;;6186544;23;20074;-77
2023/08/11 01:40:27;;;;;;;13.35;10.15;;;15.30;99.90;;;;;;6159994;23;20017;-77
2023/08/11 01:42:56;;;;;;;12.68;10.07;;;15.40;99.90;;;;;;6160179;23;20032;-77
2023/08/11 01:45:22;;;;;;;13.88;9.93;;;15.40;99.90;;;;;;6160232;23;20087;-77
2023/08/11 01:47:50;;;;;;;16.40;10.23;;;15.40;99.90;;;;;;6186731;23;20017;-76
2023/08/11 01:50:17;;;;;;;13.93;10.48;;;15.40;99.90;;;;;;6186810;23;20013;-77
2023/08/11 01:52:45;;;;;;;15.60;11.27;;;15.40;99.90;;;;;;6160027;23;20442;-77
2023/08/11 01:55:13;;;;;;;15.93;10.45;;;15.40;99.90;;;;;;6186325;23;20334;-77
2023/08/11 01:57:42;;;;;;;16.15;10.75;;;15.40;99.90;;;;;;6160115;23;20457;-77
2023/08/11 02:00:10;;;;;;;16.55;11.32;;;15.40;99.90;;;;;;6160040;23;20024;-77
2023/08/11 02:02:39;;;;;;;13.85;11.52;;;15.40;99.90;;;;;;6186621;23;20017;-76
2023/08/11 02:05:07;;;;;;;18.27;12.75;;;15.40;99.90;;;;;;6160039;23;20017;-76
2023/08/11 02:07:36;;;;;;;13.80;11.23;;;15.40;99.90;;;;;;6159909;23;20025;-76
2023/08/11 02:10:02;;;;;;;17.95;12.68;;;15.50;99.90;;;;;;6186652;23;20017;-76
2023/08/11 02:12:28;;;;;;;15.80;12.45;;;15.50;99.90;;;;;;6159825;23;20457;-76
2023/08/11 02:14:54;;;;;;;18.13;11.93;;;15.40;99.90;;;;;;6186502;23;20017;-76
2023/08/11 02:17:20;;;;;;;16.45;12.10;;;15.40;99.90;;;;;;6160361;23;20024;-77
2023/08/11 02:19:45;;;;;;;16.02;11.80;;;15.40;99.90;;;;;;6159919;23;20021;-76
2023/08/11 02:22:11;;;;;;;14.95;12.63;;;15.40;99.90;;;;;;6186551;23;20027;-77
2023/08/11 02:24:37;;;;;;;16.02;11.48;;;15.30;99.90;;;;;;6159683;23;20013;-76
2023/08/11 02:27:03;;;;;;;13.70;10.65;;;15.30;99.90;;;;;;6186129;23;20052;-76
2023/08/11 02:29:29;;;;;;;14.45;11.05;;;15.20;99.90;;;;;;6186399;23;20024;-77
2023/08/11 02:31:54;;;;;;;17.98;11.32;;;15.20;99.90;;;;;;6159709;23;20024;-77
2023/08/11 02:34:20;;;;;;;14.85;10.38;;;15.10;99.90;;;;;;6159862;23;20055;-76
2023/08/11 02:36:47;;;;;;;15.48;10.45;;;15.10;99.90;;;;;;6159538;23;20020;-76
2023/08/11 02:39:13;;;;;;;15.85;11.77;;;15.00;99.90;;;;;;6186440;23;20017;-76
2023/08/11 02:41:38;;;;;;;18.85;12.15;;;15.00;99.90;;;;;;6159536;23;20077;-77
2023/08/11 02:44:04;;;;;;;16.73;12.13;;;14.90;99.90;;;;;;6186329;23;20021;-76
2023/08/11 02:46:31;;;;;;;16.20;12.02;;;14.90;99.90;;;;;;6185904;23;20028;-76
2023/08/11 02:48:57;;;;;;;17.08;13.43;;;14.90;99.90;;;;;;6185930;23;20449;-76
2023/08/11 02:51:23;;;;;;;20.15;12.50;;;14.90;99.90;;;;;;6186217;23;20059;-76
2023/08/11 02:53:48;;;;;;;19.73;13.73;;;14.90;99.90;;;;;;6159672;23;20025;-76
2023/08/11 02:56:15;;;;;;;15.55;12.73;;;14.80;99.90;;;;;;6159481;23;20453;-76
2023/08/11 02:58:44;;;;;;;17.17;12.57;;;14.80;99.90;;;;;;6159771;23;20032;-76
2023/08/11 03:01:09;;;;;;;17.20;13.48;;;14.80;99.90;;;;;;6186225;23;20013;-77
2023/08/11 03:03:35;;;;;;;18.77;13.68;;;14.80;99.90;;;;;;6186263;23;20017;-76
2023/08/11 03:06:01;;;;;;;17.48;13.30;;;14.80;99.90;;;;;;6159579;23;20401;-76
2023/08/11 03:08:27;;;;;;;18.80;14.25;;;14.80;99.90;;;;;;6185859;23;20013;-77
2023/08/11 03:10:53;;;;;;;19.45;14.70;;;14.80;99.90;;;;;;6159331;23;20052;-77
2023/08/11 03:13:19;;;;;;;18.23;14.27;;;14.80;99.90;;;;;;6185935;23;20032;-77
2023/08/11 03:15:45;;;;;;;18.40;13.57;;;14.80;99.90;;;;;;6159479;23;20097;-77
2023/08/11 03:18:11;;;;;;;21.60;14.90;;;14.80;99.90;;;;;;6159409;23;20052;-76
2023/08/11 03:20:37;;;;;;;21.83;15.60;;;14.80;99.90;;;;;;6186178;23;20014;-76
2023/08/11 03:23:04;;;;;;;18.85;15.27;;;14.80;99.90;;;;;;6186018;23;20027;-77
2023/08/11 03:25:32;;;;;;;21.60;14.73;;;14.80;99.90;;;;;;6186147;23;20092;-77
2023/08/11 03:27:58;;;;;;;20.10;15.13;;;14.80;99.90;;;;;;6159463;23;20088;-76
2023/08/11 03:30:24;;;;;;;19.77;15.35;;;14.70;99.90;;;;;;6159507;23;20063;-76
2023/08/11 03:32:51;;;;;;;20.85;15.60;;;14.70;99.90;;;;;;6159391;23;20027;-77
2023/08/11 03:35:17;;;;;;;23.30;16.23;;;14.70;99.90;;;;;;6186449;23;20013;-76
2023/08/11 03:37:43;;;;;;;22.38;17.23;;;14.70;99.90;;;;;;6187916;23;20016;-76
2023/08/11 03:40:12;;;;;;;23.50;16.65;;;14.70;99.90;;;;;;6160935;23;20024;-76
2023/08/11 03:42:42;;;;;;;22.80;16.15;;;14.70;99.90;;;;;;6162175;23;20108;-77
2023/08/11 03:45:12;;;;;;;20.65;17.30;;;14.70;99.90;;;;;;6161362;23;20017;-77
2023/08/11 03:47:42;;;;;;;25.48;18.42;;;14.70;99.90;;;;;;6161243;23;20063;-77
2023/08/11 03:50:14;;;;;;;23.77;18.63;;;14.70;99.90;;;;;;6161262;23;20064;-77
2023/08/11 03:52:40;;;;;;;23.77;18.63;;;14.60;99.90;;;;;;6161217;23;20025;-77
2023/08/11 03:55:09;;;;;;;26.40;19.63;;;14.70;99.90;;;;;;6188475;23;20013;-77
2023/08/11 03:57:36;;;;;;;23.35;18.88;;;14.70;99.90;;;;;;6187836;23;20036;-77
2023/08/11 04:00:05;;;;;;;21.17;16.50;;;14.70;99.90;;;;;;6161936;23;20025;-77
2023/08/11 04:02:30;;;;;;;28.15;20.23;;;14.70;99.90;;;;;;6160787;23;20053;-76
2023/08/11 04:04:56;;;;;;;22.92;19.60;;;14.70;99.90;;;;;;6186576;23;20068;-76
2023/08/11 04:07:22;;;;;;;24.83;20.83;;;14.70;99.90;;;;;;6160988;23;20345;-77
2023/08/11 04:09:48;;;;;;;26.45;21.42;;;14.80;99.90;;;;;;6187309;23;20088;-77
2023/08/11 04:12:14;;;;;;;27.40;21.33;;;14.80;99.90;;;;;;6160834;23;20446;-76
2023/08/11 04:14:39;;;;;;;25.08;19.70;;;14.80;99.90;;;;;;6187644;23;20063;-76
2023/08/11 04:17:05;;;;;;;27.42;20.65;;;14.90;99.90;;;;;;6187677;23;20016;-77
2023/08/11 04:19:32;;;;;;;25.00;19.85;;;14.90;99.90;;;;;;6160916;23;20091;-77
2023/08/11 04:21:57;;;;;;;28.73;21.25;;;14.90;99.90;;;;;;6185610;23;20357;-77
2023/08/11 04:24:23;;;;;;;24.52;18.42;;;14.90;99.90;;;;;;6187515;23;20025;-76
2023/08/11 04:26:51;;;;;;;23.58;19.20;;;14.90;99.90;;;;;;6160928;23;20017;-77
2023/08/11 04:29:16;;;;;;;25.15;19.50;;;15.00;99.90;;;;;;6160733;23;20372;-76
2023/08/11 04:31:42;;;;;;;27.50;19.75;;;14.90;99.90;;;;;;6185553;23;20052;-77
2023/08/11 04:34:10;;;;;;;25.05;18.35;;;15.00;99.90;;;;;;6187476;23;20333;-77
2023/08/11 04:36:35;;;;;;;21.48;18.88;;;15.00;99.90;;;;;;6160644;23;20445;-76
2023/08/11 04:39:05;;;;;;;24.45;19.00;;;15.00;99.90;;;;;;6160512;23;20429;-76
2023/08/11 04:41:32;;;;;;;24.13;19.60;;;15.00;99.90;;;;;;6160427;23;20097;-76
2023/08/11 04:43:59;;;;;;;28.52;20.10;;;15.00;99.90;;;;;;6160669;23;20060;-76
2023/08/11 04:46:25;;;;;;;25.45;17.73;;;15.00;99.90;;;;;;6160475;23;20009;-76
2023/08/11 04:48:51;;;;;;;24.48;19.10;;;15.10;99.90;;;;;;6160509;23;20323;-76
2023/08/11 04:51:19;;;;;;;23.13;17.85;;;15.10;99.90;;;;;;6160532;23;20504;-76
2023/08/11 04:53:45;;;;;;;22.88;18.90;;;15.10;99.90;;;;;;6160536;23;20021;-76
2023/08/11 04:56:10;;;;;;;23.40;18.27;;;15.10;99.90;;;;;;6160612;23;20005;-76
2023/08/11 04:58:38;;;;;;;24.02;18.15;;;15.10;99.90;;;;;;6186826;23;20056;-76
2023/08/11 05:01:07;;;;;;;21.88;17.65;;;15.10;99.90;;;;;;6186669;23;20360;-76
2023/08/11 05:03:39;;;;;;;24.02;18.75;;;15.20;99.90;;;;;;6160397;23;20017;-76
2023/08/11 05:06:04;;;;;;;23.35;17.38;;;15.20;99.90;;;;;;6160483;23;20104;-76
2023/08/11 05:08:33;;;;;;;22.50;17.60;;;15.20;99.90;;;;;;6160707;23;20052;-76
2023/08/11 05:10:59;;;;;;;23.23;17.10;;;15.30;99.90;;;;;;6186972;23;20013;-76
2023/08/11 05:13:24;;;;;;;22.45;16.75;;;15.30;99.90;;;;;;6187181;23;20024;-76
2023/08/11 05:15:50;;;;;;;22.02;17.27;;;15.30;99.90;;;;;;6159681;23;20075;-76
2023/08/11 05:18:18;;;;;;;24.17;16.88;;;15.40;99.90;;;;;;6160279;23;20013;-76
2023/08/11 05:20:44;;;;;;;21.73;17.25;;;15.40;99.90;;;;;;6186930;23;20032;-76
2023/08/11 05:23:09;;;;;;;20.52;16.95;;;15.50;99.90;;;;;;6186572;23;20330;-76
2023/08/11 05:25:35;;;;;;;22.67;16.65;;;15.50;99.90;;;;;;6160272;23;20017;-76
2023/08/11 05:28:01;;;;;;;22.73;16.23;;;15.50;99.90;;;;;;6160273;23;20504;-76
2023/08/11 05:30:27;;;;;;;20.40;16.55;;;15.60;99.90;;;;;;6186904;23;20017;-76
2023/08/11 05:32:54;;;;;;;20.17;16.27;;;15.70;99.90;;;;;;6186409;23;20021;-76
2023/08/11 05:35:20;;;;;;;22.10;16.60;;;15.70;99.90;;;;;;6186744;23;20013;-77
2023/08/11 05:37:47;;;;;;;19.15;16.25;;;15.80;99.90;;;;;;6186792;23;20076;-76
2023/08/11 05:40:13;;;;;;;19.92;15.68;;;15.90;99.90;;;;;;6186434;23;20143;-76
2023/08/11 05:42:41;;;;;;;24.90;16.80;;;15.90;99.90;;;;;;6159543;23;20032;-76
2023/08/11 05:45:07;;;;;;;23.05;16.25;;;16.00;99.90;;;;;;6186776;23;20017;-76
2023/08/11 05:47:33;;;;;;;21.10;16.23;;;16.10;99.90;;;;;;6158968;23;20021;-76
2023/08/11 05:49:59;;;;;;;20.55;16.20;;;16.10;99.90;;;;;;6160065;23;20096;-77
2023/08/11 05:52:24;;;;;;;20.27;17.35;;;16.20;99.90;;;;;;6186616;23;20063;-76
2023/08/11 05:54:50;;;;;;;19.77;16.15;;;16.30;99.90;;;;;;6186324;23;20039;-77
2023/08/11 05:57:16;;;;;;;22.85;16.55;;;16.40;99.90;;;;;;6186418;23;20029;-76
2023/08/11 05:59:42;;;;;;;21.02;15.45;;;16.50;99.90;;;;;;6159725;23;20013;-77
2023/08/11 06:02:07;;;;;;;23.42;16.05;;;16.60;99.90;;;;;;6159852;23;20042;-77
2023/08/11 06:04:36;;;;;;;16.90;14.25;;;16.70;99.90;;;;;;6186163;23;20464;-77
2023/08/11 06:07:02;;;;;;;22.17;15.38;;;16.80;99.90;;;;;;6159884;23;20068;-77
2023/08/11 06:09:28;;;;;;;23.25;14.63;;;16.90;99.90;;;;;;6186203;23;20031;-77
2023/08/11 06:11:54;;;;;;;19.65;14.60;;;17.10;99.90;;;;;;6159937;23;20048;-77
2023/08/11 06:14:19;;;;;;;17.52;15.15;;;17.20;99.90;;;;;;6159847;23;20084;-77
2023/08/11 06:16:45;;;;;;;17.73;15.07;;;17.30;99.90;;;;;;6159920;23;20021;-77
2023/08/11 06:19:19;;;;;;;19.80;14.40;;;17.40;99.90;;;;;;6185355;23;20013;-80
2023/08/11 06:21:45;;;;;;;22.65;14.18;;;17.50;99.90;;;;;;6186227;23;20075;-76
2023/08/11 06:24:12;;;;;;;17.40;12.68;;;17.70;99.90;;;;;;6160010;23;20381;-77
2023/08/11 06:26:37;;;;;;;17.98;13.93;;;17.80;99.90;;;;;;6158605;23;20017;-77
2023/08/11 06:29:05;;;;;;;17.25;13.55;;;18.00;99.90;;;;;;6185449;23;20017;-77
2023/08/11 06:31:31;;;;;;;20.08;14.50;;;18.00;99.90;;;;;;6158346;23;20017;-77
2023/08/11 06:34:06;;;;;;;17.75;13.73;;;18.20;99.90;;;;;;6159638;23;20025;-76
2023/08/11 06:36:32;;;;;;;18.10;14.25;;;18.30;99.90;;;;;;6158767;23;20017;-77
2023/08/11 06:38:58;;;;;;;19.77;14.40;;;18.40;99.90;;;;;;6185664;23;20054;-77
2023/08/11 06:41:25;;;;;;;17.23;12.88;;;18.50;99.90;;;;;;6158888;23;20021;-77
2023/08/11 06:43:53;;;;;;;17.00;13.85;;;18.60;99.90;;;;;;6158977;23;20520;-75
2023/08/11 06:46:19;;;;;;;16.23;13.18;;;18.60;99.90;;;;;;6159398;23;20060;-75
2023/08/11 06:48:45;;;;;;;17.30;13.13;;;18.80;99.90;;;;;;6184046;23;20017;-83
2023/08/11 06:51:10;;;;;;;15.65;11.52;;;18.90;99.90;;;;;;6159318;23;20024;-76
2023/08/11 06:53:36;;;;;;;19.42;13.38;;;19.10;99.90;;;;;;6185756;23;20021;-76
2023/08/11 06:56:02;;;;;;;15.10;12.18;;;19.20;99.90;;;;;;6159126;23;20050;-77
2023/08/11 06:58:27;;;;;;;14.82;12.48;;;19.20;99.90;;;;;;6185557;23;20020;-78
2023/08/11 07:00:53;;;;;;;17.33;14.02;;;19.30;99.90;;;;;;6184034;23;20039;-74
2023/08/11 07:03:19;;;;;;;19.15;12.18;;;19.40;99.90;;;;;;6185519;23;20446;-75
2023/08/11 07:05:45;;;;;;;16.77;12.30;;;19.50;99.90;;;;;;6159190;23;20099;-76
2023/08/11 07:08:11;;;;;;;17.48;12.50;;;19.60;99.90;;;;;;6159219;23;20013;-76
2023/08/11 07:10:39;;;;;;;15.73;13.18;;;19.80;99.90;;;;;;6159631;23;20024;-76
2023/08/11 07:13:05;;;;;;;16.05;12.70;;;19.90;99.90;;;;;;6185715;23;20021;-75
2023/08/11 07:15:33;;;;;;;16.92;12.35;;;20.00;99.90;;;;;;6161298;23;20013;-79
2023/08/11 07:17:59;;;;;;;16.40;13.05;;;20.10;99.90;;;;;;6159853;23;20515;-74
2023/08/11 07:20:25;;;;;;;20.20;13.57;;;20.10;99.90;;;;;;6159948;23;20021;-76
2023/08/11 07:22:51;;;;;;;15.55;12.02;;;20.20;99.90;;;;;;6161152;23;20021;-77
2023/08/11 07:25:17;;;;;;;16.33;12.80;;;20.30;99.90;;;;;;6187333;23;20024;-77
2023/08/11 07:27:42;;;;;;;15.30;12.05;;;20.40;99.90;;;;;;6161213;23;20333;-77
2023/08/11 07:30:11;;;;;;;16.48;12.82;;;20.50;99.90;;;;;;6160107;23;20021;-78
2023/08/11 07:32:37;;;;;;;17.35;12.90;;;20.50;99.90;;;;;;6160366;23;20013;-75
2023/08/11 07:35:03;;;;;;;15.98;12.23;;;20.50;99.90;;;;;;6160882;23;20009;-75
2023/08/11 07:37:29;;;;;;;16.83;13.23;;;20.60;99.90;;;;;;6160856;23;20016;-76
2023/08/11 07:39:54;;;;;;;15.90;12.25;;;20.70;99.90;;;;;;6160513;23;20349;-76
2023/08/11 07:42:20;;;;;;;17.48;12.65;;;20.90;99.90;;;;;;6186858;23;20329;-77
2023/08/11 07:44:45;;;;;;;14.02;11.68;;;20.90;99.90;;;;;;6160615;23;20013;-77
2023/08/11 07:47:11;;;;;;;17.75;11.80;;;21.00;99.90;;;;;;6160966;23;20017;-77
2023/08/11 07:49:37;;;;;;;16.67;11.63;;;21.10;99.90;;;;;;6160501;23;20020;-78
2023/08/11 07:52:02;;;;;;;15.10;12.93;;;21.10;99.90;;;;;;6160278;23;20052;-77
2023/08/11 07:54:28;;;;;;;16.75;11.35;;;21.20;99.90;;;;;;6185703;23;20028;-77
2023/08/11 07:57:39;;;;;;;15.02;12.15;;;21.30;99.90;;;;;;6186309;23;20358;-77
2023/08/11 08:00:42;;;;;;;13.25;10.88;;;21.40;99.90;;;;;;6112766;23;20059;-77
2023/08/11 08:06:36;;;;;;;16.80;12.70;;;21.60;99.90;;;;;;6183746;23;20033;-77
2023/08/11 08:09:10;;;;;;;16.73;11.40;;;21.60;99.90;;;;;;6157149;23;20021;-77
2023/08/11 08:11:43;;;;;;;13.82;10.02;;;21.70;99.90;;;;;;6187041;23;20024;-77
2023/08/11 08:14:12;;;;;;;13.02;10.45;;;21.80;99.90;;;;;;6160607;23;20020;-76
2023/08/11 08:16:38;;;;;;;16.23;10.75;;;21.90;99.90;;;;;;6159987;23;20013;-76
2023/08/11 08:19:05;;;;;;;14.95;10.35;;;22.10;99.90;;;;;;6159199;23;20092;-77
2023/08/11 08:21:32;;;;;;;14.40;9.90;;;22.20;99.90;;;;;;6185765;23;20203;-76
2023/08/11 08:24:04;;;;;;;12.30;9.52;;;22.30;99.90;;;;;;6161006;23;20030;-77
2023/08/11 08:26:30;;;;;;;13.48;9.25;;;22.40;99.90;;;;;;6160901;23;20437;-77
2023/08/11 08:28:59;;;;;;;15.82;10.20;;;22.50;99.90;;;;;;6187062;23;20319;-77
2023/08/11 08:31:26;;;;;;;12.45;9.95;;;22.50;99.90;;;;;;6160591;23;20020;-76
2023/08/11 08:33:52;;;;;;;13.88;9.30;;;22.50;99.90;;;;;;6187100;23;20025;-78
2023/08/11 08:36:17;;;;;;;12.63;8.93;;;22.60;99.90;;;;;;6161172;23;20381;-76
2023/08/11 08:38:43;;;;;;;12.43;9.00;;;22.70;99.90;;;;;;6187427;23;20088;-76
2023/08/11 08:41:09;;;;;;;12.90;8.40;;;22.90;99.90;;;;;;6160682;23;20337;-77
2023/08/11 08:43:35;;;;;;;16.83;8.73;;;22.90;99.90;;;;;;6160675;23;20345;-76
2023/08/11 08:46:03;;;;;;;11.05;8.13;;;23.00;99.90;;;;;;6187306;23;20013;-76
2023/08/11 08:48:41;;;;;;;13.82;7.78;;;23.00;99.90;;;;;;6160712;23;20043;-76
2023/08/11 08:51:10;;;;;;;11.38;8.32;;;23.00;99.90;;;;;;6187208;23;20009;-77
2023/08/11 08:53:36;;;;;;;10.65;7.28;;;23.10;99.90;;;;;;6160696;23;20101;-76
2023/08/11 08:56:04;;;;;;;11.07;7.25;;;23.10;99.90;;;;;;6159678;23;20045;-76
2023/08/11 08:58:31;;;;;;;13.40;7.95;;;23.20;99.90;;;;;;6160251;23;20017;-76
2023/08/11 09:01:01;;;;;;;13.35;7.85;;;23.20;99.90;;;;;;6160407;23;20021;-77
2023/08/11 09:03:30;;;;;;;15.25;8.32;;;23.30;99.90;;;;;;6160538;23;20021;-76
2023/08/11 09:05:56;;;;;;;15.45;7.07;;;23.40;99.90;;;;;;6160364;23;20021;-77
2023/08/11 09:08:26;;;;;;;10.73;6.65;;;23.40;99.90;;;;;;6187090;23;20021;-76
2023/08/11 09:10:52;;;;;;;10.48;6.57;;;23.40;99.90;;;;;;6160322;23;20059;-76
2023/08/11 09:13:18;;;;;;;9.32;6.50;;;23.50;99.90;;;;;;6160391;23;20071;-76
2023/08/11 09:15:48;;;;;;;9.60;5.80;;;23.50;99.90;;;;;;6160247;23;20021;-78
2023/08/11 09:18:16;;;;;;;10.13;6.70;;;23.60;99.90;;;;;;6160294;23;20096;-76
2023/08/11 09:20:45;;;;;;;9.40;5.82;;;23.60;99.90;;;;;;6160399;23;20025;-77
2023/08/11 09:23:10;;;;;;;8.60;6.55;;;23.60;99.90;;;;;;6160375;23;20024;-77
2023/08/11 09:25:37;;;;;;;9.98;6.50;;;23.70;99.90;;;;;;6160317;23;20021;-77
2023/08/11 09:28:03;;;;;;;9.75;5.72;;;23.70;99.90;;;;;;6160205;23;20136;-77
2023/08/11 09:30:31;;;;;;;7.55;5.22;;;23.90;99.90;;;;;;6160100;23;20053;-77
2023/08/11 09:33:01;;;;;;;11.55;6.05;;;24.00;99.90;;;;;;6159661;23;20013;-76
2023/08/11 09:35:27;;;;;;;9.98;5.20;;;24.10;99.90;;;;;;6160085;23;20437;-77
2023/08/11 09:37:53;;;;;;;10.50;5.00;;;24.10;99.90;;;;;;6160108;23;20048;-77
2023/08/11 09:40:21;;;;;;;8.98;5.10;;;24.20;99.90;;;;;;6160029;23;20092;-77
2023/08/11 09:42:47;;;;;;;8.80;5.03;;;24.30;99.90;;;;;;6160422;23;20108;-77
2023/08/11 09:45:17;;;;;;;11.77;5.60;;;24.30;99.90;;;;;;6186340;23;20441;-77
2023/08/11 09:47:44;;;;;;;8.23;5.15;;;24.30;99.90;;;;;;6160584;23;20016;-77
2023/08/11 09:50:13;;;;;;;8.25;5.05;;;24.40;99.90;;;;;;6186704;23;20013;-77
2023/08/11 09:52:39;;;;;;;10.52;4.70;;;24.40;99.90;;;;;;6159864;23;20074;-76
2023/08/11 09:55:09;;;;;;;9.30;5.22;;;24.60;99.90;;;;;;6186243;23;20385;-76
2023/08/11 09:57:41;;;;;;;8.40;5.28;;;24.70;99.90;;;;;;6159900;23;20021;-76
2023/08/11 10:00:13;;;;;;;8.38;4.80;;;24.70;99.90;;;;;;6159819;23;20017;-76
2023/08/11 10:02:59;;;;;;;;;;;24.80;99.90;;;;;;6187110;23;20024;-77
2023/08/11 10:05:28;;;;;;;8.02;5.10;;;24.60;99.90;;;;;;6185345;23;19951;-77
2023/08/11 10:07:55;;;;;;;6.93;4.57;;;24.50;99.90;;;;;;6159989;23;20099;-77
2023/08/11 10:10:22;;;;;;;7.38;4.70;;;24.50;99.90;;;;;;6159774;23;20013;-77
2023/08/11 10:13:00;;;;;;;16.20;5.75;;;24.50;99.90;;;;;;6186484;23;20013;-76
2023/08/11 10:15:30;;;;;;;9.80;5.28;;;24.70;99.90;;;;;;6186196;23;20075;-77
2023/08/11 10:17:55;;;;;;;10.27;4.55;;;24.80;99.90;;;;;;6186388;23;20017;-77
2023/08/11 10:20:21;;;;;;;7.72;5.00;;;24.80;99.90;;;;;;6186390;23;20068;-77
2023/08/11 10:22:49;;;;;;;6.82;4.63;;;24.90;99.90;;;;;;6159684;23;20343;-77
2023/08/11 10:25:15;;;;;;;8.82;4.03;;;24.90;99.90;;;;;;6186044;23;20386;-77
2023/08/11 10:27:42;;;;;;;7.25;4.65;;;25.00;99.90;;;;;;6186204;23;20083;-77
2023/08/11 10:30:10;;;;;;;10.43;4.18;;;25.10;99.90;;;;;;6186300;23;20018;-77
2023/08/11 10:32:38;;;;;;;9.55;4.57;;;25.10;99.90;;;;;;6185650;23;20051;-76
2023/08/11 10:35:24;;;;;;;8.48;4.30;;;25.20;99.90;;;;;;6159697;23;20052;-76
2023/08/11 10:37:58;;;;;;;6.15;3.72;;;25.30;99.90;;;;;;6159653;23;20017;-77
2023/08/11 10:40:23;;;;;;;9.13;4.80;;;25.30;99.90;;;;;;6159679;23;20457;-76
2023/08/11 10:42:51;;;;;;;8.95;4.40;;;25.30;99.90;;;;;;6185962;23;20021;-77
2023/08/11 10:45:21;;;;;;;6.57;4.20;;;25.40;99.90;;;;;;6186022;23;20024;-76
2023/08/11 10:47:54;;;;;;;7.35;5.18;;;25.40;99.90;;;;;;6159524;23;20021;-77
2023/08/11 10:50:22;;;;;;;7.25;4.55;;;25.60;99.90;;;;;;6186299;23;20013;-78
2023/08/11 10:53:17;;;;;;;10.18;4.00;;;25.70;99.90;;;;;;6159532;23;20016;-77
2023/08/11 10:55:59;;;;;;;8.77;4.35;;;25.90;99.90;;;;;;6186176;23;20017;-77
2023/08/11 10:58:25;;;;;;;;;;;25.90;99.90;;;;;;6160052;23;20017;-76
2023/08/11 11:00:51;;;;;;;8.27;3.88;;;26.00;99.90;;;;;;6185151;23;19970;-78
2023/08/11 11:03:18;;;;;;;6.35;4.15;;;26.10;99.90;;;;;;6159872;23;20021;-77
2023/08/11 11:05:44;;;;;;;8.20;4.22;;;26.10;99.90;;;;;;6159189;23;20017;-77
2023/08/11 11:08:11;;;;;;;9.18;4.88;;;26.10;99.90;;;;;;6159442;23;20446;-77
2023/08/11 11:10:37;;;;;;;7.05;4.30;;;26.00;99.90;;;;;;6159373;23;20013;-77
2023/08/11 11:13:03;;;;;;;7.10;4.35;;;25.90;99.90;;;;;;6184969;23;20353;-77
2023/08/11 11:15:32;;;;;;;8.15;4.13;;;25.90;99.90;;;;;;6185655;23;20017;-77
2023/08/11 11:17:58;;;;;;;6.60;4.13;;;25.80;99.90;;;;;;6159288;23;20025;-77
2023/08/11 11:20:25;;;;;;;8.10;4.00;;;25.70;99.90;;;;;;6185711;23;20341;-77
2023/08/11 11:22:51;;;;;;;5.32;3.70;;;25.60;99.90;;;;;;6185740;23;20050;-77
2023/08/11 11:25:21;;;;;;;7.93;4.07;;;25.80;99.90;;;;;;6159372;23;20017;-77
2023/08/11 11:27:49;;;;;;;6.82;4.28;;;25.90;99.90;;;;;;6159587;23;20024;-77
2023/08/11 11:30:15;;;;;;;7.03;4.20;;;25.90;99.90;;;;;;6186064;23;20017;-77
2023/08/11 11:32:42;;;;;;;7.97;4.53;;;26.00;99.90;;;;;;6186030;23;20063;-77
2023/08/11 11:35:08;;;;;;;6.88;4.40;;;26.10;99.90;;;;;;6159327;23;20020;-77
2023/08/11 11:37:34;;;;;;;6.38;3.88;;;26.10;99.90;;;;;;6159430;23;20028;-77
2023/08/11 11:40:05;;;;;;;9.05;4.18;;;26.10;99.90;;;;;;6185642;23;20401;-77
2023/08/11 11:42:31;;;;;;;5.88;4.03;;;26.00;99.90;;;;;;6186079;23;20017;-77
2023/08/11 11:45:00;;;;;;;7.20;4.20;;;25.90;99.90;;;;;;6159396;23;20016;-77
2023/08/11 11:47:29;;;;;;;7.63;4.15;;;25.80;99.90;;;;;;6185981;23;20014;-77
2023/08/11 11:49:59;;;;;;;9.10;4.57;;;25.80;99.90;;;;;;6159129;23;20443;-77
2023/08/11 11:52:27;;;;;;;8.65;4.15;;;25.80;99.90;;;;;;6159525;23;20025;-76
2023/08/11 11:54:56;;;;;;;7.38;4.00;;;25.90;99.90;;;;;;6159449;23;20437;-77
2023/08/11 11:57:23;;;;;;;7.55;4.50;;;26.10;99.90;;;;;;6160412;23;20017;-76
2023/08/11 11:59:53;;;;;;;8.48;4.10;;;26.30;99.90;;;;;;6161036;23;20433;-77
2023/08/11 12:02:21;;;;;;;10.40;3.92;;;26.40;99.90;;;;;;6160354;23;20025;-77
2023/08/11 12:04:47;;;;;;;7.95;4.25;;;26.50;99.90;;;;;;6187479;23;20024;-77
2023/08/11 12:07:30;;;;;;;8.15;4.32;;;26.60;99.90;;;;;;6160806;23;20021;-77
2023/08/11 12:09:57;;;;;;;8.13;4.60;;;26.70;99.90;;;;;;6161037;23;20075;-77
2023/08/11 12:12:29;;;;;;;10.70;4.90;;;26.70;99.90;;;;;;6160782;23;20353;-77
2023/08/11 12:15:06;;;;;;;5.82;5.00;;;26.80;99.90;;;;;;6160796;23;20060;-78
2023/08/11 12:17:36;;;;;;;8.40;4.90;;;26.80;99.90;;;;;;6161062;23;20017;-77
2023/08/11 12:20:10;;;;;;;10.45;5.80;;;26.90;99.90;;;;;;6187553;23;20017;-76
2023/08/11 12:22:38;;;;;;;7.95;5.05;;;26.90;99.90;;;;;;6187472;23;20350;-77
2023/08/11 12:25:04;;;;;;;8.02;4.80;;;26.90;99.90;;;;;;6160735;23;20017;-77
2023/08/11 12:27:29;;;;;;;8.10;4.80;;;26.90;99.90;;;;;;6187250;23;20052;-77
2023/08/11 12:29:58;;;;;;;8.88;4.80;;;26.80;99.90;;;;;;6160766;23;20505;-77
2023/08/11 12:32:23;;;;;;;6.50;4.80;;;26.70;99.90;;;;;;6161644;23;20021;-77
2023/08/11 12:34:49;;;;;;;9.25;4.60;;;26.70;99.90;;;;;;6160762;23;20039;-77
2023/08/11 12:37:14;;;;;;;9.30;5.43;;;26.80;99.90;;;;;;6160693;23;20071;-77
2023/08/11 12:39:40;;;;;;;8.55;5.40;;;26.70;99.90;;;;;;6187275;23;20013;-77
2023/08/11 12:42:06;;;;;;;8.77;4.88;;;26.80;99.90;;;;;;6160655;23;20049;-77